createdAt,value
2023-03-22T00:00:01.953Z,81
2023-03-22T00:16:02.022Z,82
2023-03-22T00:31:02.000Z,82
2023-03-22T00:46:01.951Z,82
2023-03-22T01:00:01.964Z,82
2023-03-22T01:16:01.945Z,82
2023-03-22T01:31:02.128Z,83
2023-03-22T01:46:01.964Z,83
2023-03-22T02:00:01.923Z,84
2023-03-22T02:16:01.964Z,84
2023-03-22T02:31:01.907Z,84
2023-03-22T02:46:01.967Z,84
2023-03-22T03:00:01.972Z,85
2023-03-22T03:16:01.931Z,85
2023-03-22T03:31:01.910Z,85
2023-03-22T03:46:01.988Z,85
2023-03-22T04:00:01.958Z,85
2023-03-22T04:16:01.890Z,85
2023-03-22T04:31:01.927Z,86
2023-03-22T04:46:01.952Z,86
2023-03-22T05:00:01.883Z,87
2023-03-22T05:16:01.972Z,92
2023-03-22T05:31:01.868Z,88
2023-03-22T05:46:01.904Z,89
2023-03-22T06:00:01.948Z,89
2023-03-22T06:16:01.899Z,89
2023-03-22T06:31:02.012Z,89
2023-03-22T06:46:01.912Z,89
2023-03-22T07:00:19.384Z,89
2023-03-22T07:16:01.854Z,89
2023-03-22T07:31:02.308Z,87
2023-03-22T07:46:03.025Z,85
2023-03-22T08:00:02.294Z,80
2023-03-22T08:16:02.445Z,78
2023-03-22T08:31:19.272Z,75
2023-03-22T08:46:02.357Z,71
2023-03-22T09:00:02.179Z,68
2023-03-22T09:16:02.251Z,64
2023-03-22T09:31:02.279Z,62
2023-03-22T09:46:02.468Z,58
2023-03-22T10:00:02.197Z,57
2023-03-22T10:16:02.243Z,54
2023-03-22T10:31:05.234Z,55
2023-03-22T10:46:02.192Z,53
2023-03-22T11:00:02.284Z,53
2023-03-22T11:16:02.404Z,50
2023-03-22T11:31:02.229Z,46
2023-03-22T11:46:02.539Z,48
2023-03-22T12:00:02.232Z,47
2023-03-22T12:16:02.368Z,46
2023-03-22T12:31:02.166Z,46
2023-03-22T12:46:02.177Z,46
2023-03-22T13:00:02.247Z,44
2023-03-22T13:16:02.300Z,43
2023-03-22T13:31:02.287Z,41
2023-03-22T13:46:02.217Z,41
2023-03-22T14:00:15.129Z,41
2023-03-22T14:16:02.244Z,41
2023-03-22T14:52:15.474Z,41
2023-03-22T15:00:02.267Z,38
2023-03-22T15:16:02.118Z,37
2023-03-22T15:31:02.136Z,37
2023-03-22T15:46:02.217Z,37
2023-03-22T15:59:59.439Z,37
2023-03-22T16:16:02.342Z,38
2023-03-22T16:31:03.954Z,39
2023-03-22T16:46:02.165Z,41
2023-03-22T17:00:04.886Z,43
2023-03-22T17:16:02.175Z,44
2023-03-22T17:31:02.126Z,46
2023-03-22T17:46:49.773Z,49
2023-03-22T18:00:02.106Z,50
2023-03-22T18:16:02.170Z,53
2023-03-22T18:31:02.172Z,56
2023-03-22T18:46:17.058Z,58
2023-03-22T19:00:02.144Z,61
2023-03-22T19:16:02.325Z,62
2023-03-22T19:31:02.090Z,64
2023-03-22T19:46:02.154Z,65
2023-03-22T20:01:42.288Z,67
2023-03-22T20:16:02.161Z,68
2023-03-22T20:31:02.187Z,70
2023-03-22T20:46:02.094Z,72
2023-03-22T21:00:02.153Z,73
2023-03-22T21:16:02.115Z,75
2023-03-22T21:31:02.101Z,76
2023-03-22T21:46:02.177Z,77
2023-03-22T22:00:02.098Z,78
2023-03-22T22:16:02.069Z,79
2023-03-22T22:31:02.154Z,79
2023-03-22T22:46:02.895Z,80
2023-03-22T23:00:02.092Z,79
2023-03-22T23:16:02.119Z,78
2023-03-22T23:31:02.056Z,78
2023-03-22T23:46:02.072Z,79
